SCAR METAR and TAF weather

Enter ICAO airport designator
Station Type Date Time Source
SCAR METAR 2024/04/15 10:00 UTC NOAA

SCAR 151000Z 00000KT 9999 OVC066 20/16 Q1013


Station Type Date Time Source
SCAR Decoded METAR 2024/04/15 10:00 UTC NOAA

Arica, Chile (SCAR) 18-20S 070-20W 58M
Apr 15, 2024 - 06:00 AM EDT / 2024.04.15 1000 UTC
Wind: Calm:0
Visibility: greater than 7 mile(s):0
Sky conditions: overcast
Temperature: 68 F (20 C)
Dew Point: 60 F (16 C)
Relative Humidity: 77%
Pressure (altimeter): 29.91 in. Hg (1013 hPa)
ob: SCAR 151000Z 00000KT 9999 OVC066 20/16 Q1013
cycle: 10

Station Type Date Time Source
SCAR TAF 2024/04/15 06:33 UTC NOAA